Time;durP1;ratioP1;P1;durP2;ratioP2;P2;SDS_P1;SDS_P2;PMS_P1;PMS_P2;Temp;Humidity;BMP_temperature;BMP_pressure;BME280_temperature;BME280_humidity;BME280_pressure;Samples;Min_cycle;Max_cycle;Signal;HPM_P1;HPM_P2
2022/04/10 00:01:23;;;;;;;6.43;1.75;;;;;;;2.76;95.74;100391.50;5049317;28;20053;-66
2022/04/10 00:03:51;;;;;;;8.82;1.80;;;;;;;2.75;95.76;100397.59;5042081;28;20045;-66
2022/04/10 00:06:18;;;;;;;6.72;1.70;;;;;;;2.74;96.06;100401.06;5048086;28;20056;-66
2022/04/10 00:08:45;;;;;;;9.77;1.77;;;;;;;2.76;96.41;100403.66;5043315;28;20164;-66
2022/04/10 00:11:12;;;;;;;5.35;1.38;;;;;;;2.75;96.14;100397.59;5042758;28;20156;-65
2022/04/10 00:13:39;;;;;;;6.53;1.73;;;;;;;2.74;96.70;100395.03;5026524;28;20045;-65
2022/04/10 00:16:08;;;;;;;11.13;2.72;;;;;;;2.72;96.54;100413.28;5037072;28;20045;-65
2022/04/10 00:18:36;;;;;;;10.13;2.00;;;;;;;2.72;96.80;100392.50;5028260;28;20457;-64
2022/04/10 00:21:04;;;;;;;4.78;1.58;;;;;;;2.65;97.04;100390.97;5035823;28;20067;-65
2022/04/10 00:23:32;;;;;;;6.38;2.30;;;;;;;2.58;97.42;100397.25;5039660;28;20550;-66
2022/04/10 00:25:59;;;;;;;7.60;2.13;;;;;;;2.51;97.97;100401.75;5034879;28;20049;-65
2022/04/10 00:28:27;;;;;;;7.32;1.98;;;;;;;2.52;98.03;100402.63;5046855;28;20057;-65
2022/04/10 00:30:54;;;;;;;4.47;1.85;;;;;;;2.48;98.23;100406.22;5046482;28;21001;-66
2022/04/10 00:33:22;;;;;;;4.80;2.10;;;;;;;2.45;98.21;100399.34;5044990;28;20129;-66
2022/04/10 00:35:49;;;;;;;7.35;2.00;;;;;;;2.43;98.68;100395.09;5021412;28;20068;-65
2022/04/10 00:38:16;;;;;;;9.02;2.42;;;;;;;2.46;98.78;100403.66;5046927;28;20080;-66
2022/04/10 00:40:43;;;;;;;9.27;2.35;;;;;;;2.46;99.08;100398.47;5043482;28;20501;-64
2022/04/10 00:43:10;;;;;;;6.10;2.47;;;;;;;2.47;99.11;100404.50;5047585;28;20048;-65
2022/04/10 00:45:38;;;;;;;5.72;2.65;;;;;;;2.46;99.44;100403.66;5042266;28;20060;-66
2022/04/10 00:48:05;;;;;;;10.55;2.40;;;;;;;2.53;99.25;100401.75;5049801;28;20056;-64
2022/04/10 00:50:33;;;;;;;7.82;3.25;;;;;;;2.56;98.94;100403.38;5038863;28;20128;-65
2022/04/10 00:53:00;;;;;;;6.75;2.17;;;;;;;2.56;99.44;100400.78;5043182;28;20053;-66
2022/04/10 00:55:27;;;;;;;8.23;2.83;;;;;;;2.53;99.03;100397.41;5040295;28;20635;-65
2022/04/10 00:57:54;;;;;;;6.80;2.75;;;;;;;2.53;99.01;100397.41;5063007;22;20048;-86
2022/04/10 01:00:21;;;;;;;8.95;2.83;;;;;;;2.51;99.21;100401.75;4992644;28;20053;-86
2022/04/10 01:02:55;;;;;;;5.13;2.53;;;;;;;2.46;99.39;100402.81;4991646;28;20982;-81
2022/04/10 01:05:23;;;;;;;8.70;2.95;;;;;;;2.37;99.96;100416.06;5010931;28;20045;-87
2022/04/10 01:07:50;;;;;;;7.05;2.95;;;;;;;2.32;100.00;100405.81;5010902;28;20132;-87
2022/04/10 01:10:17;;;;;;;11.23;3.10;;;;;;;2.37;100.00;100388.34;4981051;28;20046;-84
2022/04/10 01:12:45;;;;;;;9.23;2.83;;;;;;;2.34;100.00;100403.16;5010302;28;20040;-82
2022/04/10 01:15:12;;;;;;;8.90;2.90;;;;;;;2.30;100.00;100389.41;5000618;28;20038;-83
2022/04/10 01:17:40;;;;;;;4.88;2.85;;;;;;;2.20;100.00;100396.59;5013169;28;20517;-83
2022/04/10 01:20:08;;;;;;;8.30;2.72;;;;;;;2.25;100.00;100396.47;4997202;28;20148;-87
2022/04/10 01:22:36;;;;;;;8.63;3.00;;;;;;;2.24;100.00;100399.97;4994508;28;20199;-86
2022/04/10 01:25:05;;;;;;;10.77;3.75;;;;;;;2.26;100.00;100395.59;5000167;28;20025;-85
2022/04/10 01:27:39;;;;;;;9.10;3.25;;;;;;;2.29;100.00;100396.34;5004151;28;20379;-84
2022/04/10 01:30:11;;;;;;;7.03;2.88;;;;;;;2.32;100.00;100407.56;4993532;28;20103;-86
2022/04/10 01:32:39;;;;;;;7.00;2.65;;;;;;;2.30;100.00;100399.81;5022960;28;20059;-86
2022/04/10 01:35:07;;;;;;;6.18;2.80;;;;;;;2.32;100.00;100397.16;5009027;28;20140;-86
2022/04/10 01:37:36;;;;;;;9.05;3.13;;;;;;;2.33;100.00;100402.31;5010687;28;20400;-86
2022/04/10 01:40:04;;;;;;;8.88;3.17;;;;;;;2.30;100.00;100389.41;5011080;28;20087;-89
2022/04/10 01:42:32;;;;;;;5.97;2.75;;;;;;;2.28;100.00;100407.63;5006061;28;20056;-81
2022/04/10 01:45:00;;;;;;;12.93;3.72;;;;;;;2.26;100.00;100400.78;4994330;28;20060;-82
2022/04/10 01:47:30;;;;;;;6.80;2.75;;;;;;;2.21;100.00;100413.91;4979247;28;20049;-82
2022/04/10 01:50:05;;;;;;;15.32;3.10;;;;;;;2.18;100.00;100411.38;4995120;28;20080;-85
2022/04/10 01:52:34;;;;;;;8.00;2.83;;;;;;;2.12;100.00;100406.38;4995183;28;20045;-85
2022/04/10 01:55:05;;;;;;;7.50;2.80;;;;;;;2.07;100.00;100405.63;5010658;28;20057;-85
2022/04/10 01:57:33;;;;;;;6.45;3.17;;;;;;;2.06;100.00;100413.47;5027994;28;20042;-81
2022/04/10 02:00:02;;;;;;;7.93;2.80;;;;;;;2.00;100.00;100402.34;4992991;28;20049;-84
2022/04/10 02:02:33;;;;;;;5.53;2.40;;;;;;;1.98;100.00;100405.88;4983220;28;20052;-82
2022/04/10 02:05:00;;;;;;;9.88;2.70;;;;;;;1.97;100.00;100410.22;4993308;28;20049;-85
2022/04/10 02:07:28;;;;;;;16.02;3.70;;;;;;;1.96;100.00;100412.88;5008792;28;20195;-87
2022/04/10 02:09:58;;;;;;;10.48;3.20;;;;;;;1.96;100.00;100407.66;4994469;28;20038;-85
2022/04/10 02:12:27;;;;;;;11.15;3.53;;;;;;;1.95;100.00;100413.78;5028427;28;20068;-85
2022/04/10 02:14:54;;;;;;;11.98;4.05;;;;;;;1.98;100.00;100411.06;5007486;28;20172;-85
2022/04/10 02:17:25;;;;;;;11.88;2.72;;;;;;;1.95;100.00;100413.78;4998690;28;20037;-83
2022/04/10 02:19:52;;;;;;;6.38;2.63;;;;;;;1.92;100.00;100412.09;4991607;28;20064;-85
2022/04/10 02:22:20;;;;;;;11.07;3.00;;;;;;;1.94;100.00;100412.06;5027740;28;20508;-81
2022/04/10 02:24:47;;;;;;;8.68;2.72;;;;;;;1.87;100.00;100408.78;5009558;28;20067;-85
2022/04/10 02:27:17;;;;;;;8.27;2.60;;;;;;;1.89;100.00;100421.69;4995239;28;20038;-85
2022/04/10 02:29:44;;;;;;;7.35;2.92;;;;;;;1.90;100.00;100406.09;4994618;28;20038;-86
2022/04/10 02:32:11;;;;;;;9.90;3.05;;;;;;;1.97;100.00;100415.41;4981068;28;20461;-81
2022/04/10 02:34:39;;;;;;;6.82;2.92;;;;;;;1.97;100.00;100425.78;5011487;28;20072;-86
2022/04/10 02:37:06;;;;;;;8.85;2.97;;;;;;;1.96;100.00;100420.66;4998167;28;20045;-84
2022/04/10 02:39:34;;;;;;;16.23;3.70;;;;;;;1.94;100.00;100414.66;5030193;28;20039;-85
2022/04/10 02:42:01;;;;;;;9.13;3.35;;;;;;;1.99;100.00;100411.03;5012117;28;20049;-85
2022/04/10 02:44:28;;;;;;;10.85;3.88;;;;;;;1.98;100.00;100411.06;5015515;28;20049;-86
2022/04/10 02:46:56;;;;;;;7.68;3.10;;;;;;;2.03;100.00;100419.59;5012139;28;20053;-85
2022/04/10 02:49:23;;;;;;;11.82;3.40;;;;;;;2.08;100.00;100422.09;4999838;28;20084;-87
2022/04/10 02:51:52;;;;;;;16.75;3.22;;;;;;;2.09;100.00;100416.84;4994790;28;20053;-85
2022/04/10 02:54:19;;;;;;;7.30;3.47;;;;;;;2.00;100.00;100428.31;4996801;28;20046;-84
2022/04/10 02:56:48;;;;;;;15.10;3.75;;;;;;;2.02;100.00;100416.13;5014830;28;20041;-83
2022/04/10 02:59:15;;;;;;;11.25;3.55;;;;;;;2.03;100.00;100425.66;4996689;28;20050;-85
2022/04/10 03:01:44;;;;;;;13.10;3.75;;;;;;;2.05;100.00;100435.13;5014729;28;20069;-85
2022/04/10 03:04:12;;;;;;;11.18;3.40;;;;;;;2.07;100.00;100428.13;5018173;28;20095;-84
2022/04/10 03:06:39;;;;;;;9.07;3.22;;;;;;;2.05;100.00;100427.34;5018545;28;20046;-85
2022/04/10 03:09:07;;;;;;;9.60;3.55;;;;;;;2.07;100.00;100425.53;5012889;28;20044;-84
2022/04/10 03:11:37;;;;;;;8.10;3.40;;;;;;;2.10;100.00;100425.47;5015291;28;20064;-80
2022/04/10 03:14:06;;;;;;;7.38;3.38;;;;;;;2.14;100.00;100434.88;5021295;28;20051;-85
2022/04/10 03:16:33;;;;;;;11.70;4.20;;;;;;;2.09;100.00;100436.75;5013211;28;20233;-85
2022/04/10 03:19:02;;;;;;;15.20;3.58;;;;;;;2.10;100.00;100433.25;5006522;28;20088;-84
2022/04/10 03:21:29;;;;;;;12.98;4.72;;;;;;;2.10;100.00;100430.66;5012826;28;20052;-85
2022/04/10 03:23:57;;;;;;;10.23;3.38;;;;;;;2.06;100.00;100429.03;5029301;28;20071;-85
2022/04/10 03:26:25;;;;;;;14.10;4.85;;;;;;;2.09;100.00;100432.41;5024817;28;20145;-85
2022/04/10 03:28:53;;;;;;;8.30;3.47;;;;;;;2.12;100.00;100439.28;4983778;28;20696;-83
2022/04/10 03:31:23;;;;;;;11.18;3.72;;;;;;;2.12;100.00;100431.50;5021587;28;20054;-85
2022/04/10 03:33:51;;;;;;;20.48;3.78;;;;;;;2.10;100.00;100448.84;5015551;28;20060;-84
2022/04/10 03:36:19;;;;;;;12.10;3.78;;;;;;;2.10;100.00;100452.28;5003630;28;20034;-84
2022/04/10 03:38:47;;;;;;;13.60;4.55;;;;;;;2.08;100.00;100440.25;5001106;28;20503;-79
2022/04/10 03:41:15;;;;;;;9.52;3.17;;;;;;;2.12;100.00;100441.88;4996552;28;20042;-83
2022/04/10 03:43:42;;;;;;;13.40;5.07;;;;;;;2.09;100.00;100448.00;5001079;28;20140;-84
2022/04/10 03:46:10;;;;;;;9.48;3.45;;;;;;;2.14;100.00;100455.66;4997310;28;20045;-80
2022/04/10 03:48:38;;;;;;;15.25;3.88;;;;;;;2.10;100.00;100454.88;5019755;28;20180;-85
2022/04/10 03:51:06;;;;;;;12.80;3.88;;;;;;;2.13;100.00;100460.00;4987322;28;20121;-87
2022/04/10 03:53:34;;;;;;;10.43;3.50;;;;;;;2.09;100.00;100473.13;5030629;28;20059;-85
2022/04/10 03:56:03;;;;;;;13.57;3.38;;;;;;;2.10;100.00;100464.41;4981180;28;20129;-82
2022/04/10 03:58:34;;;;;;;9.05;3.45;;;;;;;2.12;100.00;100473.88;5014780;28;20140;-83
2022/04/10 04:01:02;;;;;;;10.25;3.30;;;;;;;2.09;100.00;100463.56;5023246;28;20053;-83
2022/04/10 04:03:31;;;;;;;8.25;3.58;;;;;;;2.07;100.00;100480.06;5016046;28;20473;-85
2022/04/10 04:05:59;;;;;;;16.98;3.60;;;;;;;2.07;100.00;100478.31;4980905;28;20055;-82
2022/04/10 04:08:27;;;;;;;14.43;3.85;;;;;;;2.09;100.00;100473.13;5029335;28;20148;-84
2022/04/10 04:10:57;;;;;;;11.57;3.20;;;;;;;2.09;100.00;100475.72;4998785;28;20083;-85
2022/04/10 04:13:25;;;;;;;15.93;3.15;;;;;;;2.09;100.00;100493.88;4996771;28;20077;-83
2022/04/10 04:15:53;;;;;;;10.15;3.55;;;;;;;2.08;99.78;100482.66;5006681;28;20488;-80
2022/04/10 04:18:21;;;;;;;16.88;4.55;;;;;;;2.06;100.00;100505.19;4996997;28;20140;-82
2022/04/10 04:20:56;;;;;;;5.70;2.78;;;;;;;2.10;99.74;100506.81;4992629;28;20057;-85
2022/04/10 04:23:31;;;;;;;15.48;3.75;;;;;;;2.07;100.00;100499.09;4995700;28;20053;-86
2022/04/10 04:25:58;;;;;;;14.88;3.75;;;;;;;2.06;100.00;100512.97;5012312;28;20519;-81
2022/04/10 04:28:26;;;;;;;13.10;3.35;;;;;;;2.08;99.90;100505.16;5031625;28;20144;-86
2022/04/10 04:30:54;;;;;;;19.55;3.67;;;;;;;2.09;99.72;100509.47;5010395;28;20041;-79
2022/04/10 04:33:22;;;;;;;13.13;3.90;;;;;;;2.13;99.56;100521.47;4994666;28;20381;-84
2022/04/10 04:35:49;;;;;;;17.80;3.70;;;;;;;2.14;99.52;100518.84;5006818;28;20151;-84
2022/04/10 04:38:17;;;;;;;13.95;3.15;;;;;;;2.15;99.45;100528.31;5013291;28;20065;-85
2022/04/10 04:40:44;;;;;;;14.50;3.72;;;;;;;2.13;100.00;100524.06;5002786;28;20033;-82
2022/04/10 04:43:12;;;;;;;13.65;3.78;;;;;;;2.08;98.88;100516.41;5003162;28;20140;-85
2022/04/10 04:45:42;;;;;;;12.38;2.75;;;;;;;2.10;98.85;100516.34;5009494;28;20497;-86
2022/04/10 04:48:10;;;;;;;9.10;3.47;;;;;;;2.10;98.95;100521.56;4997141;28;20136;-81
2022/04/10 04:50:38;;;;;;;10.60;4.45;;;;;;;2.16;98.75;100514.47;4984292;28;20073;-86
2022/04/10 04:53:05;;;;;;;14.70;3.33;;;;;;;2.22;98.71;100516.03;4980293;28;20049;-86
2022/04/10 04:55:35;;;;;;;13.73;3.35;;;;;;;2.24;98.25;100511.66;5010069;28;20045;-86
2022/04/10 04:58:04;;;;;;;14.15;3.88;;;;;;;2.21;98.13;100519.53;5020435;28;20042;-85
2022/04/10 05:00:31;;;;;;;18.35;3.83;;;;;;;2.27;98.05;100527.16;5008531;28;20076;-84
2022/04/10 05:02:59;;;;;;;16.17;4.25;;;;;;;2.34;98.48;100535.63;5005522;28;20052;-82
2022/04/10 05:05:27;;;;;;;10.70;3.25;;;;;;;2.32;98.06;100540.88;4992954;28;20049;-86
2022/04/10 05:07:54;;;;;;;8.50;3.17;;;;;;;2.38;97.90;100542.44;4995456;28;20119;-85
2022/04/10 05:10:21;;;;;;;11.27;3.22;;;;;;;2.38;97.78;100532.91;5022978;28;20049;-82
2022/04/10 05:12:50;;;;;;;14.38;3.78;;;;;;;2.46;97.55;100537.91;4995732;28;20488;-84
2022/04/10 05:15:17;;;;;;;7.22;2.75;;;;;;;2.44;97.27;100537.97;5009912;28;20335;-81
2022/04/10 05:17:45;;;;;;;11.30;3.13;;;;;;;2.53;96.91;100561.09;4996040;28;20045;-85
2022/04/10 05:20:12;;;;;;;13.07;2.95;;;;;;;2.54;96.74;100548.94;5010791;28;20060;-86
2022/04/10 05:22:40;;;;;;;15.93;3.20;;;;;;;2.60;97.04;100558.31;4993315;28;20041;-86
2022/04/10 05:25:08;;;;;;;12.48;3.53;;;;;;;2.59;95.84;100562.66;5016514;28;20033;-85
2022/04/10 05:27:35;;;;;;;16.02;3.50;;;;;;;2.67;96.18;100565.91;5006921;28;20124;-83
2022/04/10 05:30:03;;;;;;;12.15;3.08;;;;;;;2.74;95.65;100561.38;5020398;28;20051;-85
2022/04/10 05:32:33;;;;;;;13.13;2.67;;;;;;;2.69;95.48;100571.91;5014053;28;20041;-80
2022/04/10 05:35:04;;;;;;;14.88;3.42;;;;;;;2.63;95.02;100572.09;5012366;28;20041;-83
2022/04/10 05:37:34;;;;;;;8.57;3.35;;;;;;;2.63;95.30;100572.09;4983275;28;20049;-82
2022/04/10 05:40:04;;;;;;;10.90;2.60;;;;;;;2.72;94.97;100578.78;5034910;28;20101;-83
2022/04/10 05:42:32;;;;;;;21.77;3.83;;;;;;;2.68;95.23;100571.97;4984442;28;20277;-85
2022/04/10 05:45:01;;;;;;;8.57;2.97;;;;;;;2.77;94.77;100579.50;5006055;28;20050;-81
2022/04/10 05:47:28;;;;;;;9.82;2.83;;;;;;;2.73;94.60;100580.50;4981273;28;20111;-85
2022/04/10 05:49:56;;;;;;;12.75;2.80;;;;;;;2.79;94.25;100582.91;4996482;28;20051;-82
2022/04/10 05:52:24;;;;;;;16.40;3.38;;;;;;;2.86;93.35;100591.41;4976419;28;20085;-86
2022/04/10 05:54:52;;;;;;;14.63;2.78;;;;;;;2.91;92.98;100597.31;4996261;28;20160;-83
2022/04/10 05:57:20;;;;;;;9.57;2.70;;;;;;;2.81;92.59;100601.09;5013298;28;20053;-81
2022/04/10 05:59:50;;;;;;;11.70;3.30;;;;;;;2.78;93.40;100599.41;5017893;28;20047;-85
2022/04/10 06:02:17;;;;;;;16.38;3.30;;;;;;;2.78;93.51;100602.00;5012177;28;20049;-86
2022/04/10 06:04:45;;;;;;;16.05;3.38;;;;;;;2.85;92.91;100600.97;4980354;28;20373;-82
2022/04/10 06:07:12;;;;;;;18.77;2.95;;;;;;;2.88;92.50;100600.88;5031894;28;20457;-85
2022/04/10 06:09:41;;;;;;;14.23;3.13;;;;;;;2.96;92.79;100608.44;5002125;28;20042;-82
2022/04/10 06:12:09;;;;;;;15.02;2.97;;;;;;;3.06;91.99;100607.28;5013290;28;20120;-84
2022/04/10 06:14:37;;;;;;;14.38;3.03;;;;;;;3.17;91.96;100617.41;4992890;28;20632;-83
2022/04/10 06:17:18;;;;;;;11.55;2.95;;;;;;;3.14;91.35;100605.31;5004092;28;20051;-83
2022/04/10 06:19:46;;;;;;;19.40;3.50;;;;;;;3.27;90.82;100618.84;5001042;28;20124;-82
2022/04/10 06:22:15;;;;;;;15.85;4.10;;;;;;;3.37;89.91;100620.28;4990514;28;20508;-85
2022/04/10 06:24:44;;;;;;;15.73;3.25;;;;;;;3.40;90.05;100620.19;5002154;28;20132;-85
2022/04/10 06:27:12;;;;;;;11.15;3.03;;;;;;;3.47;90.39;100628.69;4999146;28;20446;-84
2022/04/10 06:29:40;;;;;;;15.02;3.25;;;;;;;3.41;89.64;100621.88;5010901;28;20053;-81
2022/04/10 06:32:09;;;;;;;15.10;3.40;;;;;;;3.50;89.45;100638.97;5001712;28;20048;-85
2022/04/10 06:34:37;;;;;;;14.75;3.65;;;;;;;3.41;88.92;100637.50;4981289;28;20046;-80
2022/04/10 06:37:05;;;;;;;11.40;2.67;;;;;;;3.50;88.87;100638.97;5015711;28;20125;-84
2022/04/10 06:39:33;;;;;;;9.68;3.03;;;;;;;3.48;89.07;100646.00;4998139;28;20088;-85
2022/04/10 06:42:05;;;;;;;9.95;3.53;;;;;;;3.56;89.11;100649.22;5000247;28;20499;-86
2022/04/10 06:44:33;;;;;;;16.63;3.17;;;;;;;3.59;88.10;100643.91;5017729;28;20053;-81
2022/04/10 06:47:01;;;;;;;11.70;2.80;;;;;;;3.68;87.78;100646.25;5019387;28;20157;-85
2022/04/10 06:49:28;;;;;;;13.80;3.22;;;;;;;3.84;86.01;100645.78;5012909;28;20412;-81
2022/04/10 06:51:55;;;;;;;14.45;3.75;;;;;;;3.83;85.16;100650.16;5019783;28;20051;-83
2022/04/10 06:54:23;;;;;;;21.75;3.20;;;;;;;3.72;85.68;100653.06;5001577;28;20055;-80
2022/04/10 06:56:50;;;;;;;16.25;3.45;;;;;;;3.68;86.08;100637.56;5022269;28;20120;-82
2022/04/10 06:59:17;;;;;;;17.77;3.15;;;;;;;3.70;86.29;100651.41;4991747;28;20071;-84
2022/04/10 07:01:45;;;;;;;16.13;2.85;;;;;;;3.74;86.06;100640.88;5032007;28;20049;-85
2022/04/10 07:04:14;;;;;;;10.57;2.63;;;;;;;3.89;84.80;100646.50;5018500;28;20562;-84
2022/04/10 07:06:46;;;;;;;13.85;2.75;;;;;;;4.06;84.87;100647.69;5030583;28;20047;-81
2022/04/10 07:09:18;;;;;;;7.55;2.45;;;;;;;4.22;83.85;100655.00;5000915;28;20056;-85
2022/04/10 07:11:46;;;;;;;14.93;3.10;;;;;;;4.38;82.51;100650.16;5020034;28;20116;-85
2022/04/10 07:14:15;;;;;;;14.57;2.85;;;;;;;4.45;83.31;100670.72;5019993;28;20099;-85
2022/04/10 07:16:43;;;;;;;13.27;2.70;;;;;;;4.41;81.50;100660.44;5014434;28;20048;-80
2022/04/10 07:19:14;;;;;;;9.18;3.30;;;;;;;4.25;81.83;100670.53;5013768;28;20056;-81
2022/04/10 07:24:30;;;;;;;14.82;2.55;;;;;;;4.01;82.87;100680.84;5014798;28;20045;-80
2022/04/10 07:26:57;;;;;;;11.40;2.92;;;;;;;4.14;82.47;100677.81;5014063;28;20052;-82
2022/04/10 07:29:25;;;;;;;10.98;2.50;;;;;;;4.26;81.75;100674.84;4994360;28;20237;-84
2022/04/10 07:31:55;;;;;;;14.40;2.63;;;;;;;4.29;81.94;100672.16;4990785;28;20077;-84
2022/04/10 07:34:25;;;;;;;14.82;3.00;;;;;;;4.25;81.12;100668.78;5023202;28;20048;-80
2022/04/10 07:36:55;;;;;;;14.20;2.92;;;;;;;4.31;80.53;100673.78;5006305;28;20043;-85
2022/04/10 07:39:22;;;;;;;15.80;2.55;;;;;;;4.41;81.02;100676.09;5000391;28;20037;-85
2022/04/10 07:41:50;;;;;;;11.68;2.58;;;;;;;4.60;79.63;100682.41;4987352;28;20059;-78
2022/04/10 07:44:21;;;;;;;14.52;2.83;;;;;;;4.58;80.17;100681.59;5032094;28;20042;-82
2022/04/10 07:49:38;;;;;;;13.80;3.40;;;;;;;4.58;79.79;100687.66;5005162;28;20064;-84
2022/04/10 07:52:05;;;;;;;14.52;2.97;;;;;;;4.61;79.30;100691.09;5030686;28;20067;-83
2022/04/10 07:54:32;;;;;;;17.35;2.90;;;;;;;4.64;78.84;100684.03;5016846;28;20052;-83
2022/04/10 07:57:00;;;;;;;10.15;3.22;;;;;;;4.77;78.42;100690.53;5030763;28;20033;-82
2022/04/10 07:59:27;;;;;;;7.75;2.80;;;;;;;4.94;78.28;100695.16;5025525;28;20064;-84
2022/04/10 08:01:54;;;;;;;11.63;2.92;;;;;;;4.98;77.85;100701.97;5018444;28;20053;-84
2022/04/10 08:04:22;;;;;;;13.38;3.30;;;;;;;4.96;79.06;100700.34;4990913;28;20063;-82
2022/04/10 08:10:22;;;;;;;9.82;2.78;;;;;;;4.89;78.17;100725.75;5023770;28;20049;-84
2022/04/10 08:12:49;;;;;;;13.05;3.05;;;;;;;4.72;79.27;100715.03;5012905;28;20103;-83
2022/04/10 08:15:17;;;;;;;14.98;3.00;;;;;;;4.78;79.83;100725.28;5029721;28;20046;-84
2022/04/10 08:17:44;;;;;;;18.33;2.92;;;;;;;4.82;79.12;100719.91;5022119;28;20055;-84
2022/04/10 08:20:12;;;;;;;10.73;2.67;;;;;;;4.72;78.85;100726.31;5007609;28;20100;-84
2022/04/10 08:22:40;;;;;;;17.80;4.40;;;;;;;4.73;78.61;100730.66;4993838;28;20097;-84
2022/04/10 08:25:26;;;;;;;12.43;3.15;;;;;;;4.81;78.67;100725.16;5008001;28;20053;-80
2022/04/10 08:27:55;;;;;;;14.27;3.35;;;;;;;5.12;76.36;100735.41;5003270;28;20051;-85
2022/04/10 08:30:23;;;;;;;10.07;2.40;;;;;;;5.58;73.97;100742.47;5012818;28;20048;-84
2022/04/10 08:32:52;;;;;;;13.35;2.50;;;;;;;5.64;72.75;100723.13;5027809;28;20099;-83
2022/04/10 08:35:22;;;;;;;9.85;2.83;;;;;;;6.02;72.81;100726.06;5050180;28;20037;-83
2022/04/10 08:37:51;;;;;;;13.15;3.80;;;;;;;6.08;71.39;100742.38;5012895;28;20053;-81
2022/04/10 08:40:19;;;;;;;12.13;3.10;;;;;;;5.99;71.27;100736.63;5032115;28;20048;-81
2022/04/10 08:42:47;;;;;;;12.13;2.63;;;;;;;5.99;71.29;100736.63;5002246;28;20106;-81
2022/04/10 08:45:16;;;;;;;15.93;4.18;;;;;;;6.03;71.11;100736.47;5029681;28;20034;-84
2022/04/10 08:47:43;;;;;;;13.25;3.30;;;;;;;6.02;71.09;100733.91;5017853;28;20060;-81
2022/04/10 08:50:11;;;;;;;15.52;2.97;;;;;;;6.39;69.47;100733.31;5018312;28;20049;-83
2022/04/10 08:52:39;;;;;;;12.07;2.90;;;;;;;6.80;68.09;100739.50;5019832;28;20041;-84
2022/04/10 08:55:09;;;;;;;16.77;2.85;;;;;;;6.93;67.37;100742.44;5019473;28;20057;-85
2022/04/10 08:57:37;;;;;;;16.73;3.40;;;;;;;6.70;67.06;100738.16;5029474;28;20064;-83
2022/04/10 09:00:09;;;;;;;15.73;3.15;;;;;;;6.51;67.53;100740.69;5024530;28;20062;-82
2022/04/10 09:02:51;;;;;;;17.83;4.40;;;;;;;6.49;68.25;100745.13;5015006;28;20065;-84
2022/04/10 09:05:26;;;;;;;12.10;2.78;;;;;;;6.08;68.96;100742.38;5012090;28;20076;-84
2022/04/10 09:08:13;;;;;;;12.80;3.03;;;;;;;5.95;71.16;100746.38;4999209;28;20041;-82
2022/04/10 09:11:03;;;;;;;6.32;2.22;;;;;;;5.96;71.09;100758.53;5010962;28;20060;-83
2022/04/10 09:13:37;;;;;;;11.93;2.45;;;;;;;6.01;71.29;100782.72;5011820;28;21266;-83
2022/04/10 09:16:24;;;;;;;13.60;2.83;;;;;;;5.93;71.66;100768.22;5028882;28;20041;-84
2022/04/10 09:19:08;;;;;;;12.82;2.78;;;;;;;6.45;70.63;100764.47;5027734;28;20457;-87
2022/04/10 09:21:39;;;;;;;10.27;3.45;;;;;;;7.06;69.20;100763.72;5007043;28;20044;-82
2022/04/10 09:24:12;;;;;;;13.98;2.90;;;;;;;7.51;68.88;100758.25;5018614;28;20308;-86
2022/04/10 09:26:47;;;;;;;13.43;2.58;;;;;;;7.63;64.27;100758.66;5012516;28;20078;-82
2022/04/10 09:29:17;;;;;;;12.23;2.78;;;;;;;7.79;63.48;100755.28;5021133;28;20054;-82
2022/04/10 09:31:47;;;;;;;15.23;2.60;;;;;;;7.62;63.11;100763.06;5002099;28;20067;-84
2022/04/10 09:34:21;;;;;;;14.98;3.08;;;;;;;7.43;64.32;100747.28;5013624;28;20084;-82
2022/04/10 09:37:14;;;;;;;15.18;3.55;;;;;;;7.24;64.73;100768.16;4991102;28;20400;-83
2022/04/10 09:39:41;;;;;;;12.23;3.35;;;;;;;7.16;64.66;100751.97;4999117;28;20045;-85
2022/04/10 09:42:10;;;;;;;13.43;2.90;;;;;;;7.54;64.65;100770.38;5012783;28;20226;-85
2022/04/10 09:44:58;;;;;;;12.65;2.97;;;;;;;7.78;62.53;100756.19;4996911;28;20061;-86
2022/04/10 09:47:28;;;;;;;15.35;2.88;;;;;;;7.29;62.60;100779.28;5013869;28;20337;-84
2022/04/10 09:50:05;;;;;;;13.75;3.08;;;;;;;7.14;62.25;100755.53;4979660;28;20037;-83
2022/04/10 09:52:35;;;;;;;13.15;2.58;;;;;;;6.75;64.30;100766.75;4996874;28;20404;-86
2022/04/10 09:55:09;;;;;;;6.57;2.17;;;;;;;6.41;67.16;100751.56;5016020;28;20052;-81
2022/04/10 09:57:49;;;;;;;8.23;2.20;;;;;;;6.21;69.37;100784.56;5028303;28;20176;-85
2022/04/10 10:00:17;;;;;;;10.77;2.17;;;;;;;5.94;70.82;100768.16;5019860;28;20083;-85
2022/04/10 10:02:45;;;;;;;9.77;2.78;;;;;;;6.01;70.66;100772.25;5020035;28;20049;-86
2022/04/10 10:05:14;;;;;;;9.30;2.63;;;;;;;6.16;71.50;100764.75;5010050;28;20476;-84
2022/04/10 10:07:42;;;;;;;13.32;3.08;;;;;;;6.25;69.03;100762.63;5010596;28;20639;-84
2022/04/10 10:10:14;;;;;;;12.80;2.58;;;;;;;6.73;68.08;100766.81;5014987;28;20040;-84
2022/04/10 10:12:51;;;;;;;12.77;3.22;;;;;;;7.09;66.85;100759.22;5012476;28;20076;-81
2022/04/10 10:15:29;;;;;;;6.63;2.10;;;;;;;7.74;63.67;100749.38;5012434;28;20052;-86
2022/04/10 10:17:57;;;;;;;13.70;2.60;;;;;;;7.72;59.54;100753.00;4999063;28;20045;-87
2022/04/10 10:20:27;;;;;;;11.52;2.20;;;;;;;7.46;59.75;100760.25;4984091;28;20523;-84
2022/04/10 10:23:03;;;;;;;11.30;2.45;;;;;;;7.53;58.48;100751.19;5001980;28;20041;-84
2022/04/10 10:25:55;;;;;;;10.50;2.30;;;;;;;7.71;57.89;100744.28;4980854;28;20164;-85
2022/04/10 10:28:56;;;;;;;9.07;2.17;;;;;;;8.42;56.63;100762.00;4998063;28;20118;-81
2022/04/10 10:31:41;;;;;;;12.82;2.90;;;;;;;8.65;54.61;100756.53;5019518;28;20056;-81
2022/04/10 10:34:10;;;;;;;6.60;1.85;;;;;;;8.25;55.03;100757.56;5018425;28;20049;-86
2022/04/10 10:36:37;;;;;;;13.80;2.78;;;;;;;7.86;56.39;100761.09;5015270;28;20057;-86
2022/04/10 10:39:10;;;;;;;10.35;2.30;;;;;;;7.58;57.83;100764.09;5001899;28;20496;-80
2022/04/10 10:41:43;;;;;;;;;;;;;;;7.92;58.05;100754.69;5010806;28;20141;-86
2022/04/10 10:44:27;;;;;;;8.68;2.03;;;;;;;7.86;57.62;100761.94;5022705;28;19924;-83
2022/04/10 10:47:00;;;;;;;15.82;3.70;;;;;;;8.58;56.43;100755.09;5020053;28;20047;-81
2022/04/10 10:49:48;;;;;;;10.77;2.70;;;;;;;8.50;55.09;100747.59;4990390;28;20090;-86
2022/04/10 10:52:21;;;;;;;11.18;2.35;;;;;;;8.15;55.81;100767.63;5023448;28;20045;-82
2022/04/10 10:54:55;;;;;;;8.90;1.95;;;;;;;7.94;55.54;100750.25;5018898;28;20041;-84
2022/04/10 10:57:31;;;;;;;7.95;2.10;;;;;;;8.08;56.21;100738.19;5010575;28;20120;-81
2022/04/10 11:00:13;;;;;;;11.50;2.50;;;;;;;8.20;54.84;100749.06;5037955;28;20049;-84
2022/04/10 11:03:06;;;;;;;8.18;2.10;;;;;;;8.56;52.99;100744.69;5012001;28;20077;-85
2022/04/10 11:05:42;;;;;;;9.75;2.20;;;;;;;9.50;50.60;100748.72;5020216;28;20097;-85
2022/04/10 11:08:13;;;;;;;3.72;1.77;;;;;;;9.68;48.93;100746.00;5037650;28;20060;-81
2022/04/10 11:11:04;;;;;;;5.15;1.98;;;;;;;9.66;48.83;100743.47;5019077;28;20388;-82
2022/04/10 11:13:42;;;;;;;5.50;1.90;;;;;;;8.85;50.58;100751.13;5024105;28;20045;-85
2022/04/10 11:16:11;;;;;;;8.27;2.10;;;;;;;8.40;51.54;100756.00;5025938;28;20048;-80
2022/04/10 11:18:53;;;;;;;8.98;2.00;;;;;;;8.17;51.02;100754.44;5019423;28;20148;-86
2022/04/10 11:21:21;;;;;;;12.90;2.05;;;;;;;8.04;51.82;100759.41;5019210;28;20552;-85
2022/04/10 11:23:57;;;;;;;9.20;1.70;;;;;;;8.32;52.20;100753.69;4994081;28;20045;-80
2022/04/10 11:26:34;;;;;;;6.35;2.15;;;;;;;8.09;51.98;100763.50;4986087;28;20050;-81
2022/04/10 11:29:06;;;;;;;9.75;2.22;;;;;;;7.73;52.04;100758.16;5017072;28;20400;-86
2022/04/10 11:31:42;;;;;;;9.10;2.22;;;;;;;7.28;53.41;100788.06;5032780;28;20053;-85
2022/04/10 11:34:21;;;;;;;11.63;2.08;;;;;;;7.18;54.40;100786.78;5003330;28;20816;-85
2022/04/10 11:36:53;;;;;;;6.82;1.67;;;;;;;6.59;57.82;100809.22;5000560;28;20042;-81
2022/04/10 11:39:30;;;;;;;5.63;1.67;;;;;;;6.13;61.32;100818.00;4992006;28;20080;-81
2022/04/10 11:42:11;;;;;;;8.30;1.48;;;;;;;5.90;66.26;100821.44;4999959;28;20050;-81
2022/04/10 11:44:39;;;;;;;6.47;1.40;;;;;;;5.55;70.96;100804.41;5012490;28;20067;-82
2022/04/10 11:47:09;;;;;;;10.77;2.25;;;;;;;5.62;72.09;100794.59;5007662;28;20053;-81
2022/04/10 11:49:37;;;;;;;9.07;2.55;;;;;;;6.17;71.76;100792.56;5017033;28;20042;-81